sensor_id;sensor_type;location;lat;lon;timestamp;temperature;humidity
20483;DHT22;10400;53.198;6.592;2024-01-06T00:01:41;2.70;99.90
20483;DHT22;10400;53.198;6.592;2024-01-06T00:04:06;2.70;99.90
20483;DHT22;10400;53.198;6.592;2024-01-06T00:06:32;2.70;99.90
20483;DHT22;10400;53.198;6.592;2024-01-06T00:08:58;2.70;99.90
20483;DHT22;10400;53.198;6.592;2024-01-06T00:11:23;2.70;99.90
20483;DHT22;10400;53.198;6.592;2024-01-06T00:13:49;2.70;99.90
20483;DHT22;10400;53.198;6.592;2024-01-06T00:16:18;2.70;99.90
20483;DHT22;10400;53.198;6.592;2024-01-06T00:18:47;2.70;99.90
20483;DHT22;10400;53.198;6.592;2024-01-06T00:21:13;2.70;99.90
20483;DHT22;10400;53.198;6.592;2024-01-06T00:23:42;2.70;99.90
20483;DHT22;10400;53.198;6.592;2024-01-06T00:26:09;2.70;99.90
20483;DHT22;10400;53.198;6.592;2024-01-06T00:28:35;2.70;99.90
20483;DHT22;10400;53.198;6.592;2024-01-06T00:31:01;2.70;99.90
20483;DHT22;10400;53.198;6.592;2024-01-06T00:33:26;2.60;99.90
20483;DHT22;10400;53.198;6.592;2024-01-06T00:35:52;2.60;99.90
20483;DHT22;10400;53.198;6.592;2024-01-06T00:38:17;2.60;99.90
20483;DHT22;10400;53.198;6.592;2024-01-06T00:40:44;2.60;99.90
20483;DHT22;10400;53.198;6.592;2024-01-06T00:43:09;2.60;99.90
20483;DHT22;10400;53.198;6.592;2024-01-06T00:45:35;2.60;99.90
20483;DHT22;10400;53.198;6.592;2024-01-06T00:48:00;2.70;99.90
20483;DHT22;10400;53.198;6.592;2024-01-06T00:50:26;2.50;99.90
20483;DHT22;10400;53.198;6.592;2024-01-06T00:52:52;2.60;99.90
20483;DHT22;10400;53.198;6.592;2024-01-06T00:55:21;2.60;99.90
20483;DHT22;10400;53.198;6.592;2024-01-06T00:57:47;2.60;99.90
20483;DHT22;10400;53.198;6.592;2024-01-06T01:00:13;2.60;99.90
20483;DHT22;10400;53.198;6.592;2024-01-06T01:02:39;2.50;99.90
20483;DHT22;10400;53.198;6.592;2024-01-06T01:05:05;2.50;99.90
20483;DHT22;10400;53.198;6.592;2024-01-06T01:07:32;2.50;99.90
20483;DHT22;10400;53.198;6.592;2024-01-06T01:09:58;2.50;99.90
20483;DHT22;10400;53.198;6.592;2024-01-06T01:12:24;2.50;99.90
20483;DHT22;10400;53.198;6.592;2024-01-06T01:14:50;2.50;99.90
20483;DHT22;10400;53.198;6.592;2024-01-06T01:17:16;2.50;99.90
20483;DHT22;10400;53.198;6.592;2024-01-06T01:19:42;2.40;99.90
20483;DHT22;10400;53.198;6.592;2024-01-06T01:22:07;2.40;99.90
20483;DHT22;10400;53.198;6.592;2024-01-06T01:24:33;2.50;99.90
20483;DHT22;10400;53.198;6.592;2024-01-06T01:26:59;2.40;99.90
20483;DHT22;10400;53.198;6.592;2024-01-06T01:29:24;2.40;99.90
20483;DHT22;10400;53.198;6.592;2024-01-06T01:31:50;2.40;99.90
20483;DHT22;10400;53.198;6.592;2024-01-06T01:34:16;2.40;99.90
20483;DHT22;10400;53.198;6.592;2024-01-06T01:36:41;2.40;99.90
20483;DHT22;10400;53.198;6.592;2024-01-06T01:39:07;2.40;99.90
20483;DHT22;10400;53.198;6.592;2024-01-06T01:41:32;2.40;99.90
20483;DHT22;10400;53.198;6.592;2024-01-06T01:43:58;2.30;99.90
20483;DHT22;10400;53.198;6.592;2024-01-06T01:46:28;2.30;99.90
20483;DHT22;10400;53.198;6.592;2024-01-06T01:48:55;2.40;99.90
20483;DHT22;10400;53.198;6.592;2024-01-06T01:51:22;2.30;99.90
20483;DHT22;10400;53.198;6.592;2024-01-06T01:53:49;2.30;99.90
20483;DHT22;10400;53.198;6.592;2024-01-06T01:56:15;2.30;99.90
20483;DHT22;10400;53.198;6.592;2024-01-06T01:58:41;2.30;99.90
20483;DHT22;10400;53.198;6.592;2024-01-06T02:01:08;2.30;99.90
20483;DHT22;10400;53.198;6.592;2024-01-06T02:03:35;2.30;99.90
20483;DHT22;10400;53.198;6.592;2024-01-06T02:06:01;2.30;99.90
20483;DHT22;10400;53.198;6.592;2024-01-06T02:08:26;2.40;99.90
20483;DHT22;10400;53.198;6.592;2024-01-06T02:10:54;2.30;99.90
20483;DHT22;10400;53.198;6.592;2024-01-06T02:13:21;2.30;99.90
20483;DHT22;10400;53.198;6.592;2024-01-06T02:15:46;2.30;99.90
20483;DHT22;10400;53.198;6.592;2024-01-06T02:18:12;2.30;99.90
20483;DHT22;10400;53.198;6.592;2024-01-06T02:20:38;2.20;99.90
20483;DHT22;10400;53.198;6.592;2024-01-06T02:23:05;2.30;99.90
20483;DHT22;10400;53.198;6.592;2024-01-06T02:25:31;2.20;99.90
20483;DHT22;10400;53.198;6.592;2024-01-06T02:27:56;2.30;99.90
20483;DHT22;10400;53.198;6.592;2024-01-06T02:30:22;2.30;99.90
20483;DHT22;10400;53.198;6.592;2024-01-06T02:32:48;2.30;99.90
20483;DHT22;10400;53.198;6.592;2024-01-06T02:35:13;2.20;99.90
20483;DHT22;10400;53.198;6.592;2024-01-06T02:37:39;2.20;99.90
20483;DHT22;10400;53.198;6.592;2024-01-06T02:40:05;2.20;99.90
20483;DHT22;10400;53.198;6.592;2024-01-06T02:42:31;2.10;99.90
20483;DHT22;10400;53.198;6.592;2024-01-06T02:44:57;2.20;99.90
20483;DHT22;10400;53.198;6.592;2024-01-06T02:47:22;2.10;99.90
20483;DHT22;10400;53.198;6.592;2024-01-06T02:49:48;2.10;99.90
20483;DHT22;10400;53.198;6.592;2024-01-06T02:52:13;2.10;99.90
20483;DHT22;10400;53.198;6.592;2024-01-06T02:54:39;2.10;99.90
20483;DHT22;10400;53.198;6.592;2024-01-06T02:57:05;2.00;99.90
20483;DHT22;10400;53.198;6.592;2024-01-06T02:59:30;2.00;99.90
20483;DHT22;10400;53.198;6.592;2024-01-06T03:01:57;2.10;99.90
20483;DHT22;10400;53.198;6.592;2024-01-06T03:04:23;2.10;99.90
20483;DHT22;10400;53.198;6.592;2024-01-06T03:06:49;2.10;99.90
20483;DHT22;10400;53.198;6.592;2024-01-06T03:09:18;2.00;99.90
20483;DHT22;10400;53.198;6.592;2024-01-06T03:11:44;2.00;99.90
20483;DHT22;10400;53.198;6.592;2024-01-06T03:14:10;2.00;99.90
20483;DHT22;10400;53.198;6.592;2024-01-06T03:16:36;2.00;99.90
20483;DHT22;10400;53.198;6.592;2024-01-06T03:19:01;2.00;99.90
20483;DHT22;10400;53.198;6.592;2024-01-06T03:21:27;2.00;99.90
20483;DHT22;10400;53.198;6.592;2024-01-06T03:23:53;1.90;99.90
20483;DHT22;10400;53.198;6.592;2024-01-06T03:26:20;2.00;99.90
20483;DHT22;10400;53.198;6.592;2024-01-06T03:28:47;2.00;99.90
20483;DHT22;10400;53.198;6.592;2024-01-06T03:31:13;2.00;99.90
20483;DHT22;10400;53.198;6.592;2024-01-06T03:33:38;2.00;99.90
20483;DHT22;10400;53.198;6.592;2024-01-06T03:36:07;2.00;99.90
20483;DHT22;10400;53.198;6.592;2024-01-06T03:38:33;2.10;99.90
20483;DHT22;10400;53.198;6.592;2024-01-06T03:40:59;2.10;99.90
20483;DHT22;10400;53.198;6.592;2024-01-06T03:43:25;2.10;99.90
20483;DHT22;10400;53.198;6.592;2024-01-06T03:45:50;2.10;99.90
20483;DHT22;10400;53.198;6.592;2024-01-06T03:48:16;2.00;99.90
20483;DHT22;10400;53.198;6.592;2024-01-06T03:50:42;2.10;99.90
20483;DHT22;10400;53.198;6.592;2024-01-06T03:53:07;2.10;99.90
20483;DHT22;10400;53.198;6.592;2024-01-06T03:55:33;2.10;99.90
20483;DHT22;10400;53.198;6.592;2024-01-06T03:57:59;2.10;99.90
20483;DHT22;10400;53.198;6.592;2024-01-06T04:00:25;2.10;99.90
20483;DHT22;10400;53.198;6.592;2024-01-06T04:02:51;2.10;99.90
20483;DHT22;10400;53.198;6.592;2024-01-06T04:05:17;2.00;99.90
20483;DHT22;10400;53.198;6.592;2024-01-06T04:07:43;2.00;99.90
20483;DHT22;10400;53.198;6.592;2024-01-06T04:10:08;2.00;99.90
20483;DHT22;10400;53.198;6.592;2024-01-06T04:12:34;2.00;99.90
20483;DHT22;10400;53.198;6.592;2024-01-06T04:15:00;2.00;99.90
20483;DHT22;10400;53.198;6.592;2024-01-06T04:17:25;2.00;99.90
20483;DHT22;10400;53.198;6.592;2024-01-06T04:19:52;2.00;99.90
20483;DHT22;10400;53.198;6.592;2024-01-06T04:22:18;2.00;99.90
20483;DHT22;10400;53.198;6.592;2024-01-06T04:24:43;2.10;99.90
20483;DHT22;10400;53.198;6.592;2024-01-06T04:27:09;1.90;99.90
20483;DHT22;10400;53.198;6.592;2024-01-06T04:29:35;1.90;99.90
20483;DHT22;10400;53.198;6.592;2024-01-06T04:32:01;1.90;99.90
20483;DHT22;10400;53.198;6.592;2024-01-06T04:34:26;1.90;99.90
20483;DHT22;10400;53.198;6.592;2024-01-06T04:36:52;1.90;99.90
20483;DHT22;10400;53.198;6.592;2024-01-06T04:39:18;1.90;99.90
20483;DHT22;10400;53.198;6.592;2024-01-06T04:41:43;1.90;99.90
20483;DHT22;10400;53.198;6.592;2024-01-06T04:44:09;1.90;99.90
20483;DHT22;10400;53.198;6.592;2024-01-06T04:46:35;2.00;99.90
20483;DHT22;10400;53.198;6.592;2024-01-06T04:49:00;1.90;99.90
20483;DHT22;10400;53.198;6.592;2024-01-06T04:51:26;1.90;99.90
20483;DHT22;10400;53.198;6.592;2024-01-06T04:53:52;2.00;99.90
20483;DHT22;10400;53.198;6.592;2024-01-06T04:56:18;2.00;99.90
20483;DHT22;10400;53.198;6.592;2024-01-06T04:58:44;2.00;99.90
20483;DHT22;10400;53.198;6.592;2024-01-06T05:01:10;1.90;99.90
20483;DHT22;10400;53.198;6.592;2024-01-06T05:03:35;1.90;99.90
20483;DHT22;10400;53.198;6.592;2024-01-06T05:06:01;2.00;99.90
20483;DHT22;10400;53.198;6.592;2024-01-06T05:08:27;2.00;99.90
20483;DHT22;10400;53.198;6.592;2024-01-06T05:10:53;2.00;99.90
20483;DHT22;10400;53.198;6.592;2024-01-06T05:13:19;2.10;99.90
20483;DHT22;10400;53.198;6.592;2024-01-06T05:15:45;2.00;99.90
20483;DHT22;10400;53.198;6.592;2024-01-06T05:18:10;2.00;99.90
20483;DHT22;10400;53.198;6.592;2024-01-06T05:20:36;2.00;99.90
20483;DHT22;10400;53.198;6.592;2024-01-06T05:23:01;2.10;99.90
20483;DHT22;10400;53.198;6.592;2024-01-06T05:25:27;2.10;99.90
20483;DHT22;10400;53.198;6.592;2024-01-06T05:27:53;2.10;99.90
20483;DHT22;10400;53.198;6.592;2024-01-06T05:30:18;2.10;99.90
20483;DHT22;10400;53.198;6.592;2024-01-06T05:32:44;2.10;99.90
20483;DHT22;10400;53.198;6.592;2024-01-06T05:35:11;2.10;99.90
20483;DHT22;10400;53.198;6.592;2024-01-06T05:37:37;2.10;99.90
20483;DHT22;10400;53.198;6.592;2024-01-06T05:40:03;2.20;99.90
20483;DHT22;10400;53.198;6.592;2024-01-06T05:42:30;2.10;99.90
20483;DHT22;10400;53.198;6.592;2024-01-06T05:44:55;2.10;99.90
20483;DHT22;10400;53.198;6.592;2024-01-06T05:47:21;2.10;99.90
20483;DHT22;10400;53.198;6.592;2024-01-06T05:49:47;2.10;99.90
20483;DHT22;10400;53.198;6.592;2024-01-06T05:52:12;2.10;99.90
20483;DHT22;10400;53.198;6.592;2024-01-06T05:54:42;2.20;99.90
20483;DHT22;10400;53.198;6.592;2024-01-06T05:57:08;2.20;99.90
20483;DHT22;10400;53.198;6.592;2024-01-06T05:59:34;2.20;99.90
20483;DHT22;10400;53.198;6.592;2024-01-06T06:02:00;2.20;99.90
20483;DHT22;10400;53.198;6.592;2024-01-06T06:04:25;2.10;99.90
20483;DHT22;10400;53.198;6.592;2024-01-06T06:06:51;2.10;99.90
20483;DHT22;10400;53.198;6.592;2024-01-06T06:09:17;2.10;99.90
20483;DHT22;10400;53.198;6.592;2024-01-06T06:11:42;2.20;99.90
20483;DHT22;10400;53.198;6.592;2024-01-06T06:14:09;2.20;99.90
20483;DHT22;10400;53.198;6.592;2024-01-06T06:16:34;2.20;99.90
20483;DHT22;10400;53.198;6.592;2024-01-06T06:19:00;2.20;99.90
20483;DHT22;10400;53.198;6.592;2024-01-06T06:21:25;2.30;99.90
20483;DHT22;10400;53.198;6.592;2024-01-06T06:23:51;2.20;99.90
20483;DHT22;10400;53.198;6.592;2024-01-06T06:26:17;2.20;99.90
20483;DHT22;10400;53.198;6.592;2024-01-06T06:28:42;2.20;99.90
20483;DHT22;10400;53.198;6.592;2024-01-06T06:31:09;2.20;99.90
20483;DHT22;10400;53.198;6.592;2024-01-06T06:33:34;2.20;99.90
20483;DHT22;10400;53.198;6.592;2024-01-06T06:36:00;2.20;99.90
20483;DHT22;10400;53.198;6.592;2024-01-06T06:38:27;2.30;99.90
20483;DHT22;10400;53.198;6.592;2024-01-06T06:40:53;2.30;99.90
20483;DHT22;10400;53.198;6.592;2024-01-06T06:43:18;2.20;99.90
20483;DHT22;10400;53.198;6.592;2024-01-06T06:45:44;2.20;99.90
20483;DHT22;10400;53.198;6.592;2024-01-06T06:48:10;2.20;99.90
20483;DHT22;10400;53.198;6.592;2024-01-06T06:50:35;2.30;99.90
20483;DHT22;10400;53.198;6.592;2024-01-06T06:53:01;2.30;99.90
20483;DHT22;10400;53.198;6.592;2024-01-06T06:55:27;2.30;99.90
20483;DHT22;10400;53.198;6.592;2024-01-06T06:57:53;2.30;99.90
20483;DHT22;10400;53.198;6.592;2024-01-06T07:00:19;2.30;99.90
20483;DHT22;10400;53.198;6.592;2024-01-06T07:02:45;2.30;99.90
20483;DHT22;10400;53.198;6.592;2024-01-06T07:05:11;2.30;99.90
20483;DHT22;10400;53.198;6.592;2024-01-06T07:07:36;2.30;99.90
20483;DHT22;10400;53.198;6.592;2024-01-06T07:10:04;2.30;99.90
20483;DHT22;10400;53.198;6.592;2024-01-06T07:12:33;2.30;99.90
20483;DHT22;10400;53.198;6.592;2024-01-06T07:14:59;2.30;99.90
20483;DHT22;10400;53.198;6.592;2024-01-06T07:17:25;2.30;99.90
20483;DHT22;10400;53.198;6.592;2024-01-06T07:19:50;2.30;99.90
20483;DHT22;10400;53.198;6.592;2024-01-06T07:22:16;2.30;99.90
20483;DHT22;10400;53.198;6.592;2024-01-06T07:24:44;2.40;99.90
20483;DHT22;10400;53.198;6.592;2024-01-06T07:27:09;2.30;99.90
20483;DHT22;10400;53.198;6.592;2024-01-06T07:29:35;2.40;99.90
20483;DHT22;10400;53.198;6.592;2024-01-06T07:32:01;2.40;99.90
20483;DHT22;10400;53.198;6.592;2024-01-06T07:34:27;2.40;99.90
20483;DHT22;10400;53.198;6.592;2024-01-06T07:36:52;2.50;99.90
20483;DHT22;10400;53.198;6.592;2024-01-06T07:39:18;2.40;99.90
20483;DHT22;10400;53.198;6.592;2024-01-06T07:41:44;2.40;99.90
20483;DHT22;10400;53.198;6.592;2024-01-06T07:44:12;2.40;99.90
20483;DHT22;10400;53.198;6.592;2024-01-06T07:46:38;2.40;99.90
20483;DHT22;10400;53.198;6.592;2024-01-06T07:49:06;2.40;99.90
20483;DHT22;10400;53.198;6.592;2024-01-06T07:51:32;2.40;99.90
20483;DHT22;10400;53.198;6.592;2024-01-06T07:53:57;2.40;99.90
20483;DHT22;10400;53.198;6.592;2024-01-06T07:56:23;2.40;99.90
20483;DHT22;10400;53.198;6.592;2024-01-06T07:58:49;2.40;99.90
20483;DHT22;10400;53.198;6.592;2024-01-06T08:01:15;2.40;99.90
20483;DHT22;10400;53.198;6.592;2024-01-06T08:03:41;2.40;99.90
20483;DHT22;10400;53.198;6.592;2024-01-06T08:06:06;2.40;99.90
20483;DHT22;10400;53.198;6.592;2024-01-06T08:08:32;2.40;99.90
20483;DHT22;10400;53.198;6.592;2024-01-06T08:10:57;2.50;99.90
20483;DHT22;10400;53.198;6.592;2024-01-06T08:13:23;2.40;99.90
20483;DHT22;10400;53.198;6.592;2024-01-06T08:15:49;2.40;99.90
20483;DHT22;10400;53.198;6.592;2024-01-06T08:18:14;2.40;99.90
20483;DHT22;10400;53.198;6.592;2024-01-06T08:20:40;2.40;99.90
20483;DHT22;10400;53.198;6.592;2024-01-06T08:23:05;2.40;99.90
20483;DHT22;10400;53.198;6.592;2024-01-06T08:25:31;2.40;99.90
20483;DHT22;10400;53.198;6.592;2024-01-06T08:27:57;2.40;99.90
20483;DHT22;10400;53.198;6.592;2024-01-06T08:30:22;2.40;99.90
20483;DHT22;10400;53.198;6.592;2024-01-06T08:32:49;2.50;99.90
20483;DHT22;10400;53.198;6.592;2024-01-06T08:35:14;2.50;99.90
20483;DHT22;10400;53.198;6.592;2024-01-06T08:37:42;2.50;99.90
20483;DHT22;10400;53.198;6.592;2024-01-06T08:40:09;2.50;99.90
20483;DHT22;10400;53.198;6.592;2024-01-06T08:42:34;2.50;99.90
20483;DHT22;10400;53.198;6.592;2024-01-06T08:45:00;2.40;99.90
20483;DHT22;10400;53.198;6.592;2024-01-06T08:47:26;2.40;99.90
20483;DHT22;10400;53.198;6.592;2024-01-06T08:49:51;2.40;99.90
20483;DHT22;10400;53.198;6.592;2024-01-06T08:52:17;2.40;99.90
20483;DHT22;10400;53.198;6.592;2024-01-06T08:54:42;2.50;99.90
20483;DHT22;10400;53.198;6.592;2024-01-06T08:57:08;2.60;99.90
20483;DHT22;10400;53.198;6.592;2024-01-06T08:59:34;2.60;99.90
20483;DHT22;10400;53.198;6.592;2024-01-06T09:01:59;2.60;99.90
20483;DHT22;10400;53.198;6.592;2024-01-06T09:04:26;2.60;99.90
20483;DHT22;10400;53.198;6.592;2024-01-06T09:06:52;2.60;99.90
20483;DHT22;10400;53.198;6.592;2024-01-06T09:09:17;2.60;99.90
20483;DHT22;10400;53.198;6.592;2024-01-06T09:11:43;2.60;99.90
20483;DHT22;10400;53.198;6.592;2024-01-06T09:14:10;2.60;99.90
20483;DHT22;10400;53.198;6.592;2024-01-06T09:16:38;2.60;99.90
20483;DHT22;10400;53.198;6.592;2024-01-06T09:19:04;2.60;99.90
20483;DHT22;10400;53.198;6.592;2024-01-06T09:21:30;2.60;99.90
20483;DHT22;10400;53.198;6.592;2024-01-06T09:23:55;2.60;99.90
20483;DHT22;10400;53.198;6.592;2024-01-06T09:26:21;2.70;99.90
20483;DHT22;10400;53.198;6.592;2024-01-06T09:28:47;2.70;99.90
20483;DHT22;10400;53.198;6.592;2024-01-06T09:31:13;2.60;99.90
20483;DHT22;10400;53.198;6.592;2024-01-06T09:33:39;2.70;99.90
20483;DHT22;10400;53.198;6.592;2024-01-06T09:36:05;2.70;99.90
20483;DHT22;10400;53.198;6.592;2024-01-06T09:38:30;2.60;99.90
20483;DHT22;10400;53.198;6.592;2024-01-06T09:40:56;2.60;99.90
20483;DHT22;10400;53.198;6.592;2024-01-06T09:43:23;2.60;99.90
20483;DHT22;10400;53.198;6.592;2024-01-06T09:45:57;2.70;99.90
20483;DHT22;10400;53.198;6.592;2024-01-06T09:48:29;2.70;99.90
20483;DHT22;10400;53.198;6.592;2024-01-06T09:50:56;2.70;99.90
20483;DHT22;10400;53.198;6.592;2024-01-06T09:53:28;2.70;99.90
20483;DHT22;10400;53.198;6.592;2024-01-06T09:55:59;2.80;99.90
20483;DHT22;10400;53.198;6.592;2024-01-06T09:58:24;2.70;99.90
20483;DHT22;10400;53.198;6.592;2024-01-06T10:00:56;2.80;99.90
20483;DHT22;10400;53.198;6.592;2024-01-06T10:03:21;2.70;99.90
20483;DHT22;10400;53.198;6.592;2024-01-06T10:05:47;2.70;99.90
20483;DHT22;10400;53.198;6.592;2024-01-06T10:08:13;2.70;99.90
20483;DHT22;10400;53.198;6.592;2024-01-06T10:10:39;2.60;99.90
20483;DHT22;10400;53.198;6.592;2024-01-06T10:13:05;2.60;99.90
20483;DHT22;10400;53.198;6.592;2024-01-06T10:15:31;2.60;99.90
20483;DHT22;10400;53.198;6.592;2024-01-06T10:17:57;2.70;99.90
20483;DHT22;10400;53.198;6.592;2024-01-06T10:20:25;2.70;99.90
20483;DHT22;10400;53.198;6.592;2024-01-06T10:22:51;2.70;99.90
20483;DHT22;10400;53.198;6.592;2024-01-06T10:25:18;2.70;99.90
20483;DHT22;10400;53.198;6.592;2024-01-06T10:27:44;2.70;99.90
20483;DHT22;10400;53.198;6.592;2024-01-06T10:30:10;2.70;99.90
20483;DHT22;10400;53.198;6.592;2024-01-06T10:32:36;2.70;99.90
20483;DHT22;10400;53.198;6.592;2024-01-06T10:35:02;2.70;99.90
20483;DHT22;10400;53.198;6.592;2024-01-06T10:37:29;2.70;99.90
20483;DHT22;10400;53.198;6.592;2024-01-06T10:40:17;2.60;99.90
20483;DHT22;10400;53.198;6.592;2024-01-06T10:42:43;2.60;99.90
20483;DHT22;10400;53.198;6.592;2024-01-06T10:45:11;2.50;99.90
20483;DHT22;10400;53.198;6.592;2024-01-06T10:47:37;2.60;99.90
20483;DHT22;10400;53.198;6.592;2024-01-06T10:50:04;2.60;99.90
20483;DHT22;10400;53.198;6.592;2024-01-06T10:52:30;2.50;99.90
20483;DHT22;10400;53.198;6.592;2024-01-06T10:54:57;2.50;99.90
20483;DHT22;10400;53.198;6.592;2024-01-06T10:57:23;2.50;99.90
20483;DHT22;10400;53.198;6.592;2024-01-06T10:59:51;2.50;99.90
20483;DHT22;10400;53.198;6.592;2024-01-06T11:02:18;2.50;99.90
20483;DHT22;10400;53.198;6.592;2024-01-06T11:04:48;2.60;99.90
20483;DHT22;10400;53.198;6.592;2024-01-06T11:07:17;2.60;99.90
20483;DHT22;10400;53.198;6.592;2024-01-06T11:12:18;2.50;99.90
20483;DHT22;10400;53.198;6.592;2024-01-06T11:14:44;2.60;99.90
20483;DHT22;10400;53.198;6.592;2024-01-06T11:17:11;2.60;99.90
20483;DHT22;10400;53.198;6.592;2024-01-06T11:22:27;2.60;99.90
20483;DHT22;10400;53.198;6.592;2024-01-06T11:25:13;2.60;99.90
20483;DHT22;10400;53.198;6.592;2024-01-06T11:27:39;2.70;99.90
20483;DHT22;10400;53.198;6.592;2024-01-06T11:30:05;2.70;99.90
20483;DHT22;10400;53.198;6.592;2024-01-06T11:32:32;2.70;99.90
20483;DHT22;10400;53.198;6.592;2024-01-06T11:35:11;2.70;99.90
20483;DHT22;10400;53.198;6.592;2024-01-06T11:40:10;2.70;99.90
20483;DHT22;10400;53.198;6.592;2024-01-06T11:42:41;2.70;99.90
20483;DHT22;10400;53.198;6.592;2024-01-06T11:45:07;2.60;99.90
20483;DHT22;10400;53.198;6.592;2024-01-06T11:47:34;2.60;99.90
20483;DHT22;10400;53.198;6.592;2024-01-06T11:50:01;2.60;99.90
20483;DHT22;10400;53.198;6.592;2024-01-06T11:52:33;2.70;99.90
20483;DHT22;10400;53.198;6.592;2024-01-06T11:55:00;2.70;99.90
20483;DHT22;10400;53.198;6.592;2024-01-06T11:57:26;2.70;99.90
20483;DHT22;10400;53.198;6.592;2024-01-06T11:59:52;2.80;99.90
20483;DHT22;10400;53.198;6.592;2024-01-06T12:02:18;2.80;99.90
20483;DHT22;10400;53.198;6.592;2024-01-06T12:04:51;2.80;99.90
20483;DHT22;10400;53.198;6.592;2024-01-06T12:07:18;2.80;99.90
20483;DHT22;10400;53.198;6.592;2024-01-06T12:09:45;2.80;99.90
20483;DHT22;10400;53.198;6.592;2024-01-06T12:12:15;2.90;99.90
20483;DHT22;10400;53.198;6.592;2024-01-06T12:14:42;2.90;99.90
20483;DHT22;10400;53.198;6.592;2024-01-06T12:17:08;2.80;99.90
20483;DHT22;10400;53.198;6.592;2024-01-06T12:19:33;2.80;99.90
20483;DHT22;10400;53.198;6.592;2024-01-06T12:21:59;2.70;99.90
20483;DHT22;10400;53.198;6.592;2024-01-06T12:24:29;2.70;99.90
20483;DHT22;10400;53.198;6.592;2024-01-06T12:26:56;2.80;99.90
20483;DHT22;10400;53.198;6.592;2024-01-06T12:29:25;2.80;99.90
20483;DHT22;10400;53.198;6.592;2024-01-06T12:31:52;2.70;99.90
20483;DHT22;10400;53.198;6.592;2024-01-06T12:34:18;2.60;99.90
20483;DHT22;10400;53.198;6.592;2024-01-06T12:36:44;2.60;99.90
20483;DHT22;10400;53.198;6.592;2024-01-06T12:39:13;2.60;99.90
20483;DHT22;10400;53.198;6.592;2024-01-06T12:41:40;2.60;99.90
20483;DHT22;10400;53.198;6.592;2024-01-06T12:44:06;2.60;99.90
20483;DHT22;10400;53.198;6.592;2024-01-06T12:46:33;2.60;99.90
20483;DHT22;10400;53.198;6.592;2024-01-06T12:48:59;2.50;99.90
20483;DHT22;10400;53.198;6.592;2024-01-06T12:51:24;2.50;99.90
20483;DHT22;10400;53.198;6.592;2024-01-06T12:53:50;2.60;99.90
20483;DHT22;10400;53.198;6.592;2024-01-06T12:56:17;2.60;99.90
20483;DHT22;10400;53.198;6.592;2024-01-06T12:58:43;2.60;99.90
20483;DHT22;10400;53.198;6.592;2024-01-06T13:01:09;2.60;99.90
20483;DHT22;10400;53.198;6.592;2024-01-06T13:03:35;2.50;99.90
20483;DHT22;10400;53.198;6.592;2024-01-06T13:06:01;2.50;99.90
20483;DHT22;10400;53.198;6.592;2024-01-06T13:08:27;2.60;99.90
20483;DHT22;10400;53.198;6.592;2024-01-06T13:10:54;2.50;99.90
20483;DHT22;10400;53.198;6.592;2024-01-06T13:13:20;2.60;99.90
20483;DHT22;10400;53.198;6.592;2024-01-06T13:15:45;2.60;99.90
20483;DHT22;10400;53.198;6.592;2024-01-06T13:18:12;2.50;99.90
20483;DHT22;10400;53.198;6.592;2024-01-06T13:20:41;2.50;99.90
20483;DHT22;10400;53.198;6.592;2024-01-06T13:23:07;2.50;99.90
20483;DHT22;10400;53.198;6.592;2024-01-06T13:25:34;2.50;99.90
20483;DHT22;10400;53.198;6.592;2024-01-06T13:28:00;2.50;99.90
20483;DHT22;10400;53.198;6.592;2024-01-06T13:30:26;2.50;99.90
20483;DHT22;10400;53.198;6.592;2024-01-06T13:32:52;2.50;99.90
20483;DHT22;10400;53.198;6.592;2024-01-06T13:35:20;2.50;99.90
20483;DHT22;10400;53.198;6.592;2024-01-06T13:37:46;2.50;99.90
20483;DHT22;10400;53.198;6.592;2024-01-06T13:40:14;2.50;99.90
20483;DHT22;10400;53.198;6.592;2024-01-06T13:42:40;2.60;99.90
20483;DHT22;10400;53.198;6.592;2024-01-06T13:45:06;2.50;99.90
20483;DHT22;10400;53.198;6.592;2024-01-06T13:47:32;2.50;99.90
20483;DHT22;10400;53.198;6.592;2024-01-06T13:49:58;2.50;99.90
20483;DHT22;10400;53.198;6.592;2024-01-06T13:52:24;2.30;99.90
20483;DHT22;10400;53.198;6.592;2024-01-06T13:54:50;2.40;99.90
20483;DHT22;10400;53.198;6.592;2024-01-06T13:57:16;2.40;99.90
20483;DHT22;10400;53.198;6.592;2024-01-06T13:59:41;2.40;99.90
20483;DHT22;10400;53.198;6.592;2024-01-06T14:02:08;2.50;99.90
20483;DHT22;10400;53.198;6.592;2024-01-06T14:04:35;2.60;99.90
20483;DHT22;10400;53.198;6.592;2024-01-06T14:07:01;2.70;99.90
20483;DHT22;10400;53.198;6.592;2024-01-06T14:09:27;2.60;99.90
20483;DHT22;10400;53.198;6.592;2024-01-06T14:11:53;2.60;99.90
20483;DHT22;10400;53.198;6.592;2024-01-06T14:14:20;2.40;99.90
20483;DHT22;10400;53.198;6.592;2024-01-06T14:16:46;2.40;99.90
20483;DHT22;10400;53.198;6.592;2024-01-06T14:19:13;2.50;99.90
20483;DHT22;10400;53.198;6.592;2024-01-06T14:21:39;2.50;99.90
20483;DHT22;10400;53.198;6.592;2024-01-06T14:24:05;2.40;99.90
20483;DHT22;10400;53.198;6.592;2024-01-06T14:26:32;2.40;99.90
20483;DHT22;10400;53.198;6.592;2024-01-06T14:28:58;2.40;99.90
20483;DHT22;10400;53.198;6.592;2024-01-06T14:31:25;2.30;99.90
20483;DHT22;10400;53.198;6.592;2024-01-06T14:33:52;2.40;99.90
20483;DHT22;10400;53.198;6.592;2024-01-06T14:36:18;2.40;99.90
20483;DHT22;10400;53.198;6.592;2024-01-06T14:38:44;2.40;99.90
20483;DHT22;10400;53.198;6.592;2024-01-06T14:41:09;2.30;99.90
20483;DHT22;10400;53.198;6.592;2024-01-06T14:43:35;2.30;99.90
20483;DHT22;10400;53.198;6.592;2024-01-06T14:46:01;2.30;99.90
20483;DHT22;10400;53.198;6.592;2024-01-06T14:48:26;2.30;99.90
20483;DHT22;10400;53.198;6.592;2024-01-06T14:50:52;2.40;99.90
20483;DHT22;10400;53.198;6.592;2024-01-06T14:53:17;2.40;99.90
20483;DHT22;10400;53.198;6.592;2024-01-06T14:55:43;2.40;99.90
20483;DHT22;10400;53.198;6.592;2024-01-06T14:58:09;2.30;99.90
20483;DHT22;10400;53.198;6.592;2024-01-06T15:00:37;2.20;99.90
20483;DHT22;10400;53.198;6.592;2024-01-06T15:03:03;2.30;99.90
20483;DHT22;10400;53.198;6.592;2024-01-06T15:05:29;2.20;99.90
20483;DHT22;10400;53.198;6.592;2024-01-06T15:07:55;2.20;99.90
20483;DHT22;10400;53.198;6.592;2024-01-06T15:10:21;2.20;99.90
20483;DHT22;10400;53.198;6.592;2024-01-06T15:12:47;2.10;99.90
20483;DHT22;10400;53.198;6.592;2024-01-06T15:15:13;2.10;99.90
20483;DHT22;10400;53.198;6.592;2024-01-06T15:17:39;2.10;99.90
20483;DHT22;10400;53.198;6.592;2024-01-06T15:20:05;2.10;99.90
20483;DHT22;10400;53.198;6.592;2024-01-06T15:22:31;2.20;99.90
20483;DHT22;10400;53.198;6.592;2024-01-06T15:24:57;2.10;99.90
20483;DHT22;10400;53.198;6.592;2024-01-06T15:27:22;2.10;99.90
20483;DHT22;10400;53.198;6.592;2024-01-06T15:29:48;2.00;99.90
20483;DHT22;10400;53.198;6.592;2024-01-06T15:32:14;2.00;99.90
20483;DHT22;10400;53.198;6.592;2024-01-06T15:34:40;2.00;99.90
20483;DHT22;10400;53.198;6.592;2024-01-06T15:37:05;2.00;99.90
20483;DHT22;10400;53.198;6.592;2024-01-06T15:39:31;2.00;99.90
20483;DHT22;10400;53.198;6.592;2024-01-06T15:41:56;1.90;99.90
20483;DHT22;10400;53.198;6.592;2024-01-06T15:44:22;1.90;99.90
20483;DHT22;10400;53.198;6.592;2024-01-06T15:46:48;1.90;99.90